Time;durP1;ratioP1;P1;durP2;ratioP2;P2;SDS_P1;SDS_P2;PMS_P1;PMS_P2;Temp;Humidity;BMP_temperature;BMP_pressure;BME280_temperature;BME280_humidity;BME280_pressure;Samples;Min_cycle;Max_cycle;Signal;HPM_P1;HPM_P2
2021/08/12 00:01:41;;;;;;;10.20;5.75;;;;;;;12.39;71.99;100302.16;256185;1104;115793;-69
2021/08/12 00:06:46;;;;;;;6.68;5.93;;;;;;;12.43;71.89;100299.84;254888;1104;116326;-69
2021/08/12 00:11:48;;;;;;;5.93;4.80;;;;;;;12.33;71.90;100303.08;255560;1104;115815;-68
2021/08/12 00:16:52;;;;;;;9.20;6.30;;;;;;;12.21;72.02;100317.50;255270;1098;115816;-68
2021/08/12 00:21:54;;;;;;;9.68;5.88;;;;;;;12.16;72.22;100326.21;254099;1098;115205;-68
2021/08/12 00:26:58;;;;;;;7.03;5.28;;;;;;;12.13;72.28;100329.34;254989;1104;116212;-67
2021/08/12 00:32:02;;;;;;;7.85;5.93;;;;;;;12.14;72.83;100333.64;253969;1104;115641;-67
2021/08/12 00:37:05;;;;;;;8.15;6.48;;;;;;;12.14;72.31;100333.64;255363;1104;115176;-67
2021/08/12 00:42:09;;;;;;;6.58;5.95;;;;;;;12.03;72.41;100339.77;253715;1104;115622;-67
2021/08/12 00:47:14;;;;;;;7.28;5.90;;;;;;;11.94;72.77;100336.61;254369;1100;115868;-67
2021/08/12 00:52:18;;;;;;;7.57;5.67;;;;;;;11.99;73.23;100335.92;255688;1103;115412;-68
2021/08/12 00:57:22;;;;;;;7.53;6.05;;;;;;;11.98;72.70;100339.64;257201;1103;115919;-68
2021/08/12 01:02:25;;;;;;;7.33;5.28;;;;;;;11.94;72.55;100341.13;255849;1103;115653;-68
2021/08/12 01:07:38;;;;;;;7.88;6.00;;;;;;;11.84;72.52;100346.23;257071;1103;115741;-69
2021/08/12 01:13:01;;;;;;;6.33;5.70;;;;;;;11.75;72.80;100349.19;254456;1104;116772;-68
2021/08/12 01:18:26;;;;;;;7.80;6.13;;;;;;;11.65;72.89;100345.43;257385;1103;117076;-69
2021/08/12 01:23:33;;;;;;;6.58;5.88;;;;;;;11.58;72.75;100348.22;257041;1104;116433;-69
2021/08/12 01:28:43;;;;;;;6.70;6.20;;;;;;;11.59;73.11;100352.52;257065;1103;115970;-68
2021/08/12 01:34:24;;;;;;;8.50;5.93;;;;;;;11.61;73.24;100352.30;256338;1104;116364;-68
2021/08/12 01:39:29;;;;;;;4.58;4.00;;;;;;;11.57;73.01;100351.11;255555;1104;116072;-68
2021/08/12 01:44:33;;;;;;;6.50;4.40;;;;;;;11.46;73.34;100350.83;257002;1104;118448;-68
2021/08/12 01:49:40;;;;;;;6.20;5.35;;;;;;;11.44;73.26;100360.09;254147;1100;116875;-68
2021/08/12 01:54:45;;;;;;;5.17;4.67;;;;;;;11.32;72.99;100360.02;256113;1104;116098;-68
2021/08/12 01:59:49;;;;;;;5.40;4.83;;;;;;;11.22;73.28;100366.95;254540;1104;116793;-68
2021/08/12 02:04:53;;;;;;;10.55;5.48;;;;;;;11.27;73.82;100364.43;254230;1104;116852;-68
2021/08/12 02:09:56;;;;;;;7.08;4.45;;;;;;;11.22;73.51;100365.09;254412;1104;139972;-68
2021/08/12 02:15:00;;;;;;;5.60;4.75;;;;;;;11.13;73.64;100358.42;254793;1098;116419;-68
2021/08/12 02:20:12;;;;;;;4.33;3.93;;;;;;;11.08;73.70;100369.76;254257;1104;116159;-68
2021/08/12 02:25:59;;;;;;;5.40;4.85;;;;;;;11.04;73.90;100362.41;253772;1104;116244;-68
2021/08/12 02:31:05;;;;;;;6.08;4.50;;;;;;;11.05;73.78;100362.19;253910;1104;115933;-66
2021/08/12 02:36:09;;;;;;;7.20;4.95;;;;;;;11.01;73.86;100355.67;255197;1104;116561;-68
2021/08/12 02:41:16;;;;;;;4.87;4.47;;;;;;;10.92;73.77;100361.54;254314;1104;116669;-67
2021/08/12 02:46:24;;;;;;;11.30;5.20;;;;;;;10.85;74.69;100366.94;253966;1104;117222;-67
2021/08/12 02:51:28;;;;;;;8.70;5.07;;;;;;;10.77;73.67;100364.55;254772;1104;116346;-67
2021/08/12 02:56:34;;;;;;;17.60;5.10;;;;;;;10.72;73.90;100364.39;255764;1104;116947;-67
2021/08/12 03:01:40;;;;;;;6.48;4.70;;;;;;;10.71;73.75;100366.24;254865;1104;116310;-67
2021/08/12 03:06:44;;;;;;;4.40;3.40;;;;;;;10.59;74.30;100367.20;257143;1104;117105;-67
2021/08/12 03:11:48;;;;;;;3.60;3.30;;;;;;;10.50;74.03;100373.83;257096;1104;116705;-67
2021/08/12 03:16:52;;;;;;;7.63;5.18;;;;;;;10.44;74.17;100371.00;257086;1104;116448;-67
2021/08/12 03:22:15;;;;;;;5.95;4.68;;;;;;;10.44;74.19;100371.00;257071;1104;116498;-67
2021/08/12 03:27:19;;;;;;;5.75;4.48;;;;;;;10.43;74.26;100369.38;257116;1104;115876;-67
2021/08/12 03:32:22;;;;;;;5.28;4.28;;;;;;;10.48;74.33;100379.38;257078;1103;116885;-67
2021/08/12 03:37:25;;;;;;;4.33;3.65;;;;;;;10.55;74.96;100377.48;257272;1104;116463;-67
2021/08/12 03:42:28;;;;;;;4.70;4.13;;;;;;;10.61;74.00;100392.61;257421;1104;116193;-67
2021/08/12 03:47:32;;;;;;;14.63;5.00;;;;;;;10.68;74.41;100397.89;255383;1104;117318;-67
2021/08/12 03:52:36;;;;;;;4.60;4.18;;;;;;;10.69;74.17;100391.52;254119;1104;116515;-67
2021/08/12 03:57:44;;;;;;;7.53;4.75;;;;;;;10.68;74.75;100392.55;254425;1103;116740;-67
2021/08/12 04:02:46;;;;;;;;;;;;;;;10.77;74.96;100400.03;255256;1104;207042;-67
2021/08/12 04:07:49;;;;;;;7.80;4.38;;;;;;;10.90;74.91;100398.28;256383;1104;103004;-67
2021/08/12 04:12:55;;;;;;;6.78;4.45;;;;;;;11.01;75.22;100403.69;256007;1104;116764;-67
2021/08/12 04:17:58;;;;;;;17.53;4.25;;;;;;;11.07;74.78;100407.33;254425;1104;117049;-68
2021/08/12 04:23:00;;;;;;;5.58;5.08;;;;;;;11.11;75.01;100408.52;254218;1098;115972;-67
2021/08/12 04:28:03;;;;;;;5.55;5.05;;;;;;;11.24;75.61;100412.91;254891;1104;116387;-68
2021/08/12 04:33:06;;;;;;;5.65;5.15;;;;;;;11.39;75.45;100421.34;253935;1100;116349;-68
2021/08/12 04:38:10;;;;;;;10.95;6.13;;;;;;;11.49;75.51;100418.97;255345;1104;116262;-68
2021/08/12 04:43:12;;;;;;;7.93;6.53;;;;;;;11.65;75.41;100418.34;255198;1104;116701;-66
2021/08/12 04:48:15;;;;;;;8.90;7.60;;;;;;;11.83;75.59;100420.22;254833;1104;115945;-66
2021/08/12 04:53:19;;;;;;;7.68;6.85;;;;;;;12.08;76.28;100425.41;255664;1104;117134;-67
2021/08/12 04:58:22;;;;;;;11.88;8.05;;;;;;;12.32;76.16;100431.63;256063;1104;116733;-67
2021/08/12 05:03:26;;;;;;;7.80;7.00;;;;;;;12.47;76.32;100430.17;255352;1104;116183;-66
2021/08/12 05:08:30;;;;;;;8.45;6.70;;;;;;;12.67;76.19;100432.51;255802;1104;116835;-67
2021/08/12 05:13:33;;;;;;;6.93;6.38;;;;;;;12.92;76.33;100429.61;257085;1104;116248;-67
2021/08/12 05:18:36;;;;;;;9.73;7.43;;;;;;;13.38;76.48;100433.33;257332;1104;116074;-67
2021/08/12 05:23:42;;;;;;;9.93;7.70;;;;;;;13.95;76.55;100425.34;257421;1103;116206;-67
2021/08/12 05:28:45;;;;;;;8.30;7.40;;;;;;;14.37;76.31;100429.29;257239;1104;118186;-68
2021/08/12 05:33:47;;;;;;;9.75;7.15;;;;;;;16.53;73.97;100440.66;257294;1104;117230;-68
2021/08/12 05:38:50;;;;;;;6.45;5.88;;;;;;;20.27;70.88;100436.69;257115;1104;117231;-69
2021/08/12 05:43:54;;;;;;;8.40;6.05;;;;;;;20.37;70.10;100452.06;257080;1103;116890;-69
2021/08/12 05:48:57;;;;;;;10.60;6.35;;;;;;;22.28;65.68;100461.13;257175;1104;117248;-69
2021/08/12 05:53:59;;;;;;;5.88;5.38;;;;;;;22.83;64.91;100458.63;257194;1104;117804;-69
2021/08/12 05:59:02;;;;;;;6.78;6.18;;;;;;;22.22;64.00;100451.44;256891;1104;116343;-68
2021/08/12 06:04:04;;;;;;;9.03;6.78;;;;;;;21.55;64.33;100453.41;254020;1104;116162;-69
2021/08/12 06:09:09;;;;;;;6.05;5.40;;;;;;;21.18;64.27;100452.16;254383;1104;116213;-69
2021/08/12 06:14:12;;;;;;;8.43;5.05;;;;;;;20.67;64.11;100454.56;255595;1104;116724;-69
2021/08/12 06:19:16;;;;;;;5.93;5.33;;;;;;;20.16;64.37;100464.94;254942;1104;116383;-68
2021/08/12 06:24:19;;;;;;;5.60;5.10;;;;;;;19.64;64.87;100457.34;254044;1104;115825;-68
2021/08/12 06:29:22;;;;;;;6.20;5.28;;;;;;;19.44;65.50;100466.32;255820;1104;116369;-68
2021/08/12 06:34:26;;;;;;;6.33;5.18;;;;;;;19.36;65.71;100466.88;255532;1098;116482;-68
2021/08/12 06:39:30;;;;;;;6.70;4.80;;;;;;;19.31;65.88;100473.11;254535;1104;116000;-68
2021/08/12 06:44:32;;;;;;;7.53;4.40;;;;;;;19.28;65.82;100472.84;254566;1104;117109;-68
2021/08/12 06:49:35;;;;;;;5.95;3.70;;;;;;;19.16;66.01;100473.16;254069;1098;116476;-68
2021/08/12 06:54:41;;;;;;;5.63;4.33;;;;;;;19.25;66.20;100476.93;256389;1104;118257;-70
2021/08/12 06:59:45;;;;;;;7.40;3.95;;;;;;;19.38;66.04;100478.23;254875;1100;115566;-68
2021/08/12 07:04:49;;;;;;;3.78;3.35;;;;;;;19.79;66.04;100482.45;253999;1099;116145;-69
2021/08/12 07:09:53;;;;;;;4.55;3.20;;;;;;;20.96;65.14;100480.86;255006;1104;116025;-68
2021/08/12 07:14:57;;;;;;;6.48;3.90;;;;;;;22.00;64.09;100484.59;255894;1104;116788;-68
2021/08/12 07:20:01;;;;;;;8.43;2.98;;;;;;;23.15;63.48;100479.54;255022;1099;117826;-69
2021/08/12 07:25:05;;;;;;;3.40;2.98;;;;;;;24.12;61.97;100483.85;254943;1104;115995;-69
2021/08/12 07:30:09;;;;;;;4.38;3.15;;;;;;;24.62;60.18;100494.70;257219;1104;116285;-69
2021/08/12 07:35:12;;;;;;;4.23;3.05;;;;;;;24.89;58.88;100499.20;257253;1104;116189;-69
2021/08/12 07:40:18;;;;;;;3.90;3.28;;;;;;;25.33;57.88;100501.09;257316;1103;116483;-69
2021/08/12 07:45:21;;;;;;;3.50;3.20;;;;;;;25.62;57.62;100497.83;257275;1104;116439;-69
2021/08/12 07:50:24;;;;;;;3.88;3.20;;;;;;;25.80;56.59;100503.03;257287;1103;116975;-70
2021/08/12 07:55:27;;;;;;;3.73;3.40;;;;;;;25.97;56.22;100504.20;257089;1104;117209;-70
2021/08/12 08:00:32;;;;;;;4.00;3.60;;;;;;;26.04;55.45;100501.78;254236;1104;117389;-69
2021/08/12 08:05:35;;;;;;;3.20;2.98;;;;;;;26.13;55.14;100508.08;254956;1104;116036;-69
2021/08/12 08:10:39;;;;;;;5.18;3.00;;;;;;;26.25;54.23;100502.80;253982;1104;116188;-69
2021/08/12 08:15:42;;;;;;;6.53;3.60;;;;;;;26.23;53.76;100510.50;253966;1104;115727;-69
2021/08/12 08:20:45;;;;;;;3.28;3.08;;;;;;;26.22;53.26;100508.09;255404;1104;116474;-68
2021/08/12 08:25:50;;;;;;;4.23;3.25;;;;;;;26.27;53.03;100510.67;253742;1103;115189;-68
2021/08/12 08:30:53;;;;;;;5.15;3.83;;;;;;;26.44;52.59;100499.76;253831;1104;116084;-67
2021/08/12 08:35:56;;;;;;;3.83;3.35;;;;;;;26.50;52.61;100515.69;254882;1104;116190;-68
2021/08/12 08:41:01;;;;;;;3.70;3.08;;;;;;;26.63;51.81;100513.09;253863;1104;140455;-67
2021/08/12 08:46:04;;;;;;;4.63;3.48;;;;;;;26.72;51.50;100516.63;257251;1104;116718;-69
2021/08/12 08:51:08;;;;;;;3.15;2.95;;;;;;;26.90;50.85;100520.96;254920;1104;115786;-67
2021/08/12 08:56:12;;;;;;;3.68;3.35;;;;;;;26.40;50.12;100526.94;257099;1104;115655;-68
2021/08/12 09:01:16;;;;;;;5.50;4.50;;;;;;;26.17;50.17;100517.25;255882;1104;115566;-68
2021/08/12 09:06:20;;;;;;;;;;;;;;;26.31;49.57;100528.84;254954;1103;116189;-67
2021/08/12 09:11:25;;;;;;;12.53;10.00;;;;;;;26.14;49.60;100526.89;254406;1104;103162;-69
2021/08/12 09:16:37;;;;;;;5.93;5.28;;;;;;;26.36;49.58;100530.63;254525;1099;116111;-68
2021/08/12 09:21:42;;;;;;;6.68;3.95;;;;;;;26.65;49.45;100522.58;253564;1104;117075;-69
2021/08/12 09:26:46;;;;;;;2.87;2.20;;;;;;;26.86;48.41;100522.73;254300;1104;117112;-68
2021/08/12 09:32:04;;;;;;;4.70;2.70;;;;;;;26.86;47.89;100528.20;255060;1104;118315;-66
2021/08/12 09:37:09;;;;;;;4.35;3.20;;;;;;;27.02;47.72;100536.72;257199;1104;115476;-68
2021/08/12 09:42:13;;;;;;;3.98;2.98;;;;;;;27.00;46.91;100534.31;255998;1104;115670;-68
2021/08/12 09:47:19;;;;;;;;;;;;;;;26.90;46.36;100525.63;257088;1104;115336;-68
2021/08/12 09:52:25;;;;;;;;;;;;;;;26.13;46.99;100532.67;257889;1104;103377;-68
2021/08/12 09:57:47;;;;;;;2.53;2.33;;;;;;;26.36;47.39;100536.89;257935;1104;102849;-68
2021/08/12 10:02:56;;;;;;;2.75;2.55;;;;;;;26.87;47.17;100529.81;257193;1104;116763;-68
2021/08/12 10:08:03;;;;;;;3.90;3.28;;;;;;;27.43;47.10;100515.02;256133;1104;115358;-68
2021/08/12 10:13:07;;;;;;;3.90;3.43;;;;;;;27.54;46.84;100523.66;253932;1104;138717;-68
2021/08/12 10:18:10;;;;;;;3.33;3.03;;;;;;;27.30;46.26;100526.17;254146;1104;116976;-69
2021/08/12 10:23:14;;;;;;;3.45;3.15;;;;;;;27.37;45.29;100510.05;254965;1104;116212;-68
2021/08/12 10:28:19;;;;;;;5.90;3.83;;;;;;;27.62;45.10;100511.90;256667;1098;117022;-69
2021/08/12 10:33:23;;;;;;;3.63;3.03;;;;;;;27.82;44.99;100522.09;257099;1104;117104;-68
2021/08/12 10:38:27;;;;;;;3.23;2.98;;;;;;;27.96;44.69;100518.32;254869;1104;115168;-69
2021/08/12 10:43:31;;;;;;;4.98;3.33;;;;;;;27.97;44.08;100511.70;253819;1103;116384;-68
2021/08/12 10:48:34;;;;;;;6.93;3.18;;;;;;;27.90;43.68;100504.00;253839;1100;115623;-67
2021/08/12 10:54:18;;;;;;;5.53;3.03;;;;;;;27.78;43.01;100502.00;253859;1104;115617;-68
2021/08/12 10:59:35;;;;;;;3.77;3.47;;;;;;;27.36;43.31;100511.98;255136;1104;115348;-68
2021/08/12 11:04:52;;;;;;;3.10;2.90;;;;;;;27.12;43.30;100509.83;254647;1104;115795;-68
2021/08/12 11:10:01;;;;;;;4.33;2.58;;;;;;;27.12;43.64;100503.55;257101;1104;115784;-68
2021/08/12 11:15:05;;;;;;;4.45;3.65;;;;;;;27.25;43.47;100504.45;254301;1104;115911;-67
2021/08/12 11:20:35;;;;;;;4.73;2.95;;;;;;;27.57;43.38;100498.36;253548;1103;117531;-68
2021/08/12 11:25:54;;;;;;;;;;;;;;;26.93;43.19;100512.08;257211;1104;115458;-67
2021/08/12 11:30:58;;;;;;;2.80;2.60;;;;;;;26.69;43.34;100511.80;257851;1103;102145;-68
2021/08/12 11:36:07;;;;;;;3.08;2.85;;;;;;;26.14;43.61;100509.69;256990;1104;115386;-67
2021/08/12 11:41:12;;;;;;;4.93;3.48;;;;;;;26.12;44.32;100499.07;256329;1104;116211;-68
2021/08/12 11:46:16;;;;;;;6.38;3.08;;;;;;;26.42;43.66;100491.88;254702;1104;115299;-68
2021/08/12 11:51:20;;;;;;;2.85;2.63;;;;;;;26.66;43.50;100496.03;257111;1103;115203;-67
2021/08/12 11:56:27;;;;;;;2.53;2.33;;;;;;;26.17;43.97;100503.58;257175;1103;117179;-67
2021/08/12 12:01:35;;;;;;;3.55;3.35;;;;;;;26.03;44.07;100511.10;257102;1103;115852;-67
2021/08/12 12:06:46;;;;;;;3.68;3.00;;;;;;;25.73;44.25;100501.88;256952;1103;116282;-67
2021/08/12 12:12:02;;;;;;;4.10;3.50;;;;;;;25.46;44.29;100508.34;257209;1103;116157;-67
2021/08/12 12:17:17;;;;;;;2.78;2.58;;;;;;;25.16;45.15;100510.78;257055;1104;115282;-69
2021/08/12 12:22:21;;;;;;;3.15;2.95;;;;;;;25.33;45.46;100501.09;255394;1104;115382;-68
2021/08/12 12:27:27;;;;;;;3.10;2.85;;;;;;;25.26;45.40;100503.45;259294;1088;115438;-71
2021/08/12 12:32:29;;;;;;;3.10;2.90;;;;;;;25.04;45.91;100502.39;253605;1105;115470;-69
2021/08/12 12:37:34;;;;;;;3.07;2.77;;;;;;;24.94;46.63;100507.27;253848;1104;115688;-70
2021/08/12 12:42:39;;;;;;;3.35;3.10;;;;;;;24.80;46.91;100504.59;254168;1104;115911;-68
2021/08/12 12:47:42;;;;;;;4.03;2.95;;;;;;;24.90;47.43;100496.16;253564;1104;115095;-68
2021/08/12 12:52:58;;;;;;;3.45;3.15;;;;;;;25.33;46.34;100487.44;253608;1104;115561;-69
2021/08/12 12:58:19;;;;;;;4.13;3.40;;;;;;;25.64;45.87;100488.23;257117;1104;115311;-68
2021/08/12 13:03:32;;;;;;;3.43;3.13;;;;;;;25.92;44.50;100474.30;257024;1104;116570;-68
2021/08/12 13:08:44;;;;;;;3.03;2.75;;;;;;;26.27;45.31;100475.95;256120;1104;115371;-68
2021/08/12 13:13:49;;;;;;;2.93;2.73;;;;;;;26.66;44.03;100468.69;257189;1104;115616;-69
2021/08/12 13:18:58;;;;;;;5.20;3.27;;;;;;;26.98;43.37;100476.38;256588;1104;115448;-69
2021/08/12 13:24:05;;;;;;;3.23;2.95;;;;;;;27.14;43.40;100468.45;257191;1104;115484;-69
2021/08/12 13:29:17;;;;;;;2.58;2.35;;;;;;;26.91;43.01;100470.56;257079;1104;115829;-69
2021/08/12 13:34:23;;;;;;;4.97;2.83;;;;;;;26.70;43.06;100470.45;256346;1104;115760;-69
2021/08/12 13:39:27;;;;;;;5.48;3.80;;;;;;;26.11;43.07;100470.14;257048;1104;115006;-70
2021/08/12 13:44:34;;;;;;;5.33;4.15;;;;;;;25.60;44.69;100464.57;257123;1104;117256;-70
2021/08/12 13:49:37;;;;;;;5.83;3.20;;;;;;;25.32;44.23;100464.00;256800;1104;116329;-69
2021/08/12 13:54:44;;;;;;;4.53;3.00;;;;;;;25.49;45.12;100456.66;257124;1104;114958;-69
2021/08/12 13:59:48;;;;;;;4.93;3.08;;;;;;;25.74;44.59;100457.06;255483;1104;114740;-69
2021/08/12 14:04:51;;;;;;;2.35;2.13;;;;;;;25.90;44.18;100457.43;253733;1104;115636;-69
2021/08/12 14:09:55;;;;;;;3.38;3.03;;;;;;;25.95;43.75;100454.55;253737;1104;115155;-70
2021/08/12 14:14:59;;;;;;;3.45;3.15;;;;;;;26.03;43.75;100445.53;253677;1104;116008;-69
2021/08/12 14:20:02;;;;;;;7.40;3.73;;;;;;;25.95;43.27;100449.09;253817;1104;116027;-69
2021/08/12 14:25:07;;;;;;;3.08;2.78;;;;;;;25.98;42.80;100453.91;253774;1104;116466;-69
2021/08/12 14:30:11;;;;;;;;;;;;;;;26.01;43.89;100459.52;254823;1104;115437;-69
2021/08/12 14:35:15;;;;;;;3.45;2.65;;;;;;;25.71;43.20;100455.77;254363;1103;103107;-68
2021/08/12 14:40:20;;;;;;;4.17;3.23;;;;;;;25.60;42.70;100448.19;253838;1104;115238;-69
2021/08/12 14:45:25;;;;;;;2.35;2.20;;;;;;;25.47;43.16;100438.98;254908;1104;115388;-68
2021/08/12 14:50:30;;;;;;;2.93;2.73;;;;;;;25.30;43.05;100439.75;253723;1104;115344;-69
2021/08/12 14:55:33;;;;;;;3.55;3.25;;;;;;;25.30;43.36;100444.41;253700;1104;115228;-68
2021/08/12 15:00:36;;;;;;;4.85;3.43;;;;;;;25.39;42.84;100432.38;253742;1104;115728;-70
2021/08/12 15:05:40;;;;;;;6.33;3.70;;;;;;;25.26;43.19;100435.23;255197;1104;116122;-71
2021/08/12 15:10:44;;;;;;;4.13;3.70;;;;;;;25.27;42.76;100431.39;253519;1104;116366;-69
2021/08/12 15:15:48;;;;;;;3.28;2.98;;;;;;;25.27;42.17;100428.66;253503;1104;117356;-69
2021/08/12 15:20:52;;;;;;;2.83;2.65;;;;;;;25.28;42.90;100430.27;253504;1104;117579;-71
2021/08/12 15:25:55;;;;;;;3.40;3.10;;;;;;;25.25;43.04;100428.17;256381;1104;138136;-71
2021/08/12 15:30:58;;;;;;;4.13;2.90;;;;;;;25.30;43.05;100433.49;253783;1100;116453;-70
2021/08/12 15:36:01;;;;;;;2.60;2.40;;;;;;;25.28;42.55;100431.08;253643;1104;116733;-71
2021/08/12 15:41:05;;;;;;;3.50;2.83;;;;;;;25.24;42.60;100430.09;253565;1100;115411;-71
2021/08/12 15:46:07;;;;;;;3.35;2.90;;;;;;;25.12;42.35;100427.95;253443;1104;115439;-70
2021/08/12 15:51:10;;;;;;;2.45;2.15;;;;;;;25.05;42.62;100426.82;253739;1099;116051;-69
2021/08/12 15:56:13;;;;;;;3.33;3.03;;;;;;;24.91;43.14;100426.88;253932;1104;116209;-68
2021/08/12 16:01:16;;;;;;;4.08;3.03;;;;;;;24.82;42.68;100428.73;253651;1104;115289;-69
2021/08/12 16:06:22;;;;;;;3.03;2.80;;;;;;;24.75;43.65;100421.03;256845;1104;116673;-69
2021/08/12 16:11:27;;;;;;;3.40;2.80;;;;;;;24.66;44.47;100428.34;255990;1104;116258;-69
2021/08/12 16:16:30;;;;;;;6.40;2.90;;;;;;;24.55;43.92;100435.16;253554;1104;115660;-69
2021/08/12 16:21:35;;;;;;;3.45;3.08;;;;;;;24.43;44.52;100424.84;254284;1104;139318;-69
2021/08/12 16:26:39;;;;;;;5.28;2.60;;;;;;;24.32;45.60;100428.91;257132;1104;115403;-70
2021/08/12 16:31:42;;;;;;;5.15;3.23;;;;;;;24.17;46.01;100426.51;253984;1100;116871;-70
2021/08/12 16:36:45;;;;;;;6.63;3.78;;;;;;;24.02;46.44;100427.69;255254;1104;116809;-70
2021/08/12 16:41:50;;;;;;;3.68;3.25;;;;;;;23.78;46.42;100427.95;253839;1104;116688;-69
2021/08/12 16:46:54;;;;;;;3.23;2.93;;;;;;;23.53;47.17;100431.22;253468;1104;116255;-69
2021/08/12 16:51:58;;;;;;;3.93;3.63;;;;;;;23.34;48.16;100430.48;253534;1104;117017;-70
2021/08/12 16:57:02;;;;;;;3.63;3.35;;;;;;;23.11;49.36;100424.94;256606;1104;115961;-70
2021/08/12 17:02:07;;;;;;;5.10;3.13;;;;;;;22.87;50.11;100428.95;253569;1104;116808;-70
2021/08/12 17:07:11;;;;;;;3.40;3.10;;;;;;;22.65;50.75;100426.83;254405;1104;115876;-70
2021/08/12 17:12:15;;;;;;;3.38;3.18;;;;;;;22.42;52.06;100421.23;255167;1099;115974;-69
2021/08/12 17:17:20;;;;;;;3.58;3.10;;;;;;;22.21;52.73;100428.10;253505;1099;116800;-70
2021/08/12 17:22:24;;;;;;;5.55;3.13;;;;;;;22.03;53.67;100431.61;253793;1099;117250;-69
2021/08/12 17:27:27;;;;;;;4.30;3.60;;;;;;;21.82;54.24;100421.02;255938;1104;116049;-69
2021/08/12 17:32:30;;;;;;;3.28;2.95;;;;;;;21.64;54.39;100429.97;254192;1104;116145;-70
2021/08/12 17:37:33;;;;;;;4.30;2.83;;;;;;;21.42;54.92;100427.77;253699;1097;115080;-69
2021/08/12 17:42:37;;;;;;;3.45;3.25;;;;;;;21.21;55.41;100431.02;253777;1104;117918;-69
2021/08/12 17:47:41;;;;;;;2.93;2.73;;;;;;;20.96;56.14;100432.88;255795;1104;117147;-67
2021/08/12 17:52:45;;;;;;;4.43;2.90;;;;;;;20.74;56.43;100437.98;257219;1104;116209;-69
2021/08/12 17:57:49;;;;;;;4.38;3.85;;;;;;;20.51;56.67;100434.91;256924;1104;117464;-69
2021/08/12 18:02:52;;;;;;;3.97;3.10;;;;;;;20.37;57.50;100433.95;257248;1104;117505;-68
2021/08/12 18:07:55;;;;;;;3.75;2.90;;;;;;;20.27;58.15;100439.39;257081;1104;117022;-67
2021/08/12 18:12:57;;;;;;;3.73;3.40;;;;;;;20.13;58.07;100455.48;257090;1104;118028;-68
2021/08/12 18:18:00;;;;;;;6.58;4.18;;;;;;;19.86;58.61;100457.80;257190;1104;117621;-68
2021/08/12 18:23:05;;;;;;;10.88;3.38;;;;;;;19.60;58.91;100448.97;257204;1104;117124;-67
2021/08/12 18:28:08;;;;;;;4.00;3.40;;;;;;;19.18;59.14;100455.58;256835;1104;115839;-67
2021/08/12 18:33:14;;;;;;;4.70;4.23;;;;;;;18.82;59.81;100457.53;257235;1104;116596;-67
2021/08/12 18:38:17;;;;;;;;;;;;;;;18.63;60.22;100463.77;255756;1104;116351;-67
2021/08/12 18:43:20;;;;;;;4.38;3.58;;;;;;;18.48;60.44;100473.43;256791;1104;104245;-67
2021/08/12 18:48:24;;;;;;;8.48;3.80;;;;;;;18.21;60.87;100472.86;254540;1104;116205;-67
2021/08/12 18:53:27;;;;;;;3.90;3.60;;;;;;;17.98;61.84;100467.95;254050;1104;116372;-68
2021/08/12 18:58:30;;;;;;;5.65;3.85;;;;;;;17.76;62.06;100477.03;254548;1104;116558;-67
2021/08/12 19:03:33;;;;;;;5.00;3.38;;;;;;;17.50;62.53;100486.87;256963;1104;116703;-67
2021/08/12 19:08:36;;;;;;;6.08;5.48;;;;;;;17.35;62.82;100485.98;256159;1104;116958;-65
2021/08/12 19:13:40;;;;;;;6.83;5.20;;;;;;;17.29;63.44;100487.03;255492;1104;117726;-66
2021/08/12 19:18:44;;;;;;;12.90;5.38;;;;;;;17.19;63.64;100487.77;255149;1104;117095;-67
2021/08/12 19:23:51;;;;;;;6.18;4.98;;;;;;;17.05;63.62;100486.61;254264;1104;116969;-66
2021/08/12 19:28:56;;;;;;;9.88;5.20;;;;;;;16.88;63.61;100485.93;255247;1099;116562;-67
2021/08/12 19:33:59;;;;;;;15.55;6.70;;;;;;;16.74;64.73;100480.19;255694;1100;116343;-67
2021/08/12 19:39:04;;;;;;;12.10;6.03;;;;;;;16.62;65.00;100482.20;254914;1100;116692;-67
2021/08/12 19:44:07;;;;;;;8.38;6.85;;;;;;;16.51;65.35;100487.48;254565;1104;117216;-67
2021/08/12 19:49:11;;;;;;;14.08;7.03;;;;;;;16.46;65.66;100482.08;256096;1104;116220;-67
2021/08/12 19:54:15;;;;;;;8.35;6.33;;;;;;;16.35;65.70;100483.03;254725;1100;115876;-66
2021/08/12 19:59:19;;;;;;;9.83;5.70;;;;;;;16.22;65.88;100483.43;256158;1104;117334;-67
2021/08/12 20:04:23;;;;;;;8.93;5.38;;;;;;;16.11;65.89;100487.91;257027;1104;116857;-67
2021/08/12 20:09:28;;;;;;;7.10;6.20;;;;;;;16.03;66.44;100487.54;257020;1104;116635;-67
2021/08/12 20:14:33;;;;;;;11.18;6.48;;;;;;;15.98;66.44;100487.48;257038;1104;115542;-67
2021/08/12 20:19:37;;;;;;;7.78;6.45;;;;;;;15.92;66.70;100483.91;257031;1104;116797;-66
2021/08/12 20:24:40;;;;;;;12.97;6.97;;;;;;;15.87;66.50;100491.13;257080;1104;115968;-68
2021/08/12 20:29:45;;;;;;;8.90;6.45;;;;;;;15.78;66.70;100494.25;257031;1104;118165;-67
2021/08/12 20:34:48;;;;;;;16.20;6.73;;;;;;;15.70;67.08;100501.93;257242;1104;115794;-67
2021/08/12 20:39:53;;;;;;;9.25;7.00;;;;;;;15.60;67.11;100497.23;257201;1099;115281;-66
2021/08/12 20:44:57;;;;;;;7.78;5.53;;;;;;;15.47;67.29;100493.02;257218;1104;115327;-67
2021/08/12 20:50:01;;;;;;;11.18;6.40;;;;;;;15.36;67.55;100501.99;254907;1100;116478;-66
2021/08/12 20:55:05;;;;;;;7.85;5.75;;;;;;;15.26;67.92;100501.05;255043;1099;116587;-65
2021/08/12 21:00:09;;;;;;;7.63;5.90;;;;;;;15.19;68.13;100493.16;257361;1104;116893;-66
2021/08/12 21:05:14;;;;;;;9.35;6.63;;;;;;;15.16;68.16;100493.65;255246;1104;115031;-66
2021/08/12 21:10:18;;;;;;;12.43;6.75;;;;;;;15.20;68.44;100491.29;255028;1104;115479;-66
2021/08/12 21:15:24;;;;;;;11.38;6.00;;;;;;;15.21;68.66;100487.55;256887;1104;116986;-67
2021/08/12 21:20:28;;;;;;;7.88;6.80;;;;;;;15.14;67.95;100475.09;254191;1104;115577;-66
2021/08/12 21:25:32;;;;;;;11.60;6.98;;;;;;;15.04;68.17;100472.25;255604;1104;114885;-66
2021/08/12 21:30:40;;;;;;;13.55;7.53;;;;;;;14.93;68.77;100467.81;254734;1104;116201;-66
2021/08/12 21:35:43;;;;;;;11.30;6.95;;;;;;;14.75;68.21;100473.41;253896;1104;115821;-66
2021/08/12 21:40:45;;;;;;;15.98;8.30;;;;;;;14.66;68.95;100470.34;254290;1104;115884;-66
2021/08/12 21:45:48;;;;;;;17.50;7.63;;;;;;;14.56;68.91;100474.72;253955;1099;116279;-67
2021/08/12 21:50:51;;;;;;;9.80;7.35;;;;;;;14.52;69.23;100479.75;255472;1104;115916;-66
2021/08/12 21:55:55;;;;;;;19.90;9.13;;;;;;;14.34;69.02;100477.27;254456;1104;114738;-66
2021/08/12 22:00:58;;;;;;;12.00;7.30;;;;;;;14.22;69.65;100479.17;253903;1104;115351;-66
2021/08/12 22:06:01;;;;;;;15.33;7.78;;;;;;;14.09;69.45;100485.63;257179;1104;116484;-67
2021/08/12 22:11:05;;;;;;;10.73;8.18;;;;;;;14.05;70.11;100495.23;254067;1104;115904;-67
2021/08/12 22:16:09;;;;;;;10.73;7.45;;;;;;;14.01;70.04;100491.39;257550;1104;115642;-67
2021/08/12 22:21:14;;;;;;;11.95;6.80;;;;;;;13.97;70.57;100496.42;257112;1104;115611;-66
2021/08/12 22:26:22;;;;;;;9.78;7.25;;;;;;;13.93;70.43;100502.48;257083;1104;115725;-66
2021/08/12 22:31:25;;;;;;;10.80;6.28;;;;;;;13.92;70.18;100503.54;257090;1104;115455;-67
2021/08/12 22:36:29;;;;;;;10.83;8.60;;;;;;;13.85;70.31;100509.03;256932;1104;116717;-66
2021/08/12 22:41:32;;;;;;;7.95;6.65;;;;;;;13.80;70.59;100498.20;256980;1104;116393;-66
2021/08/12 22:46:36;;;;;;;10.03;6.88;;;;;;;13.75;70.18;100514.20;257102;1104;116312;-66
2021/08/12 22:51:39;;;;;;;9.03;6.75;;;;;;;13.66;70.16;100512.93;257100;1104;117031;-66
2021/08/12 22:56:43;;;;;;;7.53;6.15;;;;;;;13.66;70.65;100513.74;257117;1104;115575;-67
2021/08/12 23:01:47;;;;;;;6.28;5.68;;;;;;;13.64;71.10;100515.02;254984;1104;116693;-66
2021/08/12 23:06:52;;;;;;;8.60;6.43;;;;;;;13.55;70.51;100530.64;256457;1104;116218;-66